createdAt,value
2022-10-19T00:01:21.887Z,10.57
2022-10-19T00:03:52.917Z,10.58
2022-10-19T00:06:26.124Z,10.58
2022-10-19T00:08:56.570Z,10.57
2022-10-19T00:11:24.885Z,10.58
2022-10-19T00:13:53.447Z,10.61
2022-10-19T00:16:23.365Z,10.61
2022-10-19T00:18:51.081Z,10.59
2022-10-19T00:21:19.920Z,10.59
2022-10-19T00:23:48.387Z,10.58
2022-10-19T00:26:15.771Z,10.57
2022-10-19T00:28:44.228Z,10.60
2022-10-19T00:31:15.021Z,10.62
2022-10-19T00:33:44.318Z,10.66
2022-10-19T00:36:18.637Z,10.68
2022-10-19T00:38:46.475Z,10.70
2022-10-19T00:41:15.337Z,10.71
2022-10-19T00:43:54.827Z,10.70
2022-10-19T00:46:22.806Z,10.74
2022-10-19T00:48:54.659Z,10.74
2022-10-19T00:51:22.866Z,10.76
2022-10-19T00:53:50.837Z,10.76
2022-10-19T00:56:18.693Z,10.77
2022-10-19T00:58:46.645Z,10.81
2022-10-19T01:01:18.627Z,10.79
2022-10-19T01:03:46.227Z,10.84
2022-10-19T01:06:17.073Z,10.85
2022-10-19T01:08:44.769Z,10.88
2022-10-19T01:11:39.123Z,10.90
2022-10-19T01:14:34.178Z,10.93
2022-10-19T01:17:32.899Z,10.97
2022-10-19T01:20:08.139Z,10.98
2022-10-19T01:22:54.592Z,10.99
2022-10-19T01:25:30.604Z,11.00
2022-10-19T01:28:19.703Z,11.00
2022-10-19T01:30:57.715Z,10.98
2022-10-19T01:33:46.765Z,11.01
2022-10-19T01:36:30.640Z,11.03
2022-10-19T01:39:52.571Z,11.05
2022-10-19T01:42:31.163Z,11.06
2022-10-19T01:45:01.688Z,11.01
2022-10-19T01:47:38.744Z,11.00
2022-10-19T01:50:14.854Z,11.01
2022-10-19T01:52:43.549Z,11.02
2022-10-19T01:55:15.477Z,10.99
2022-10-19T01:57:55.476Z,10.99
2022-10-19T02:00:24.077Z,10.98
2022-10-19T02:02:54.519Z,10.98
2022-10-19T02:05:27.994Z,10.99
2022-10-19T02:08:00.038Z,11.00
2022-10-19T02:10:29.377Z,11.02
2022-10-19T02:12:58.485Z,11.03
2022-10-19T02:15:29.172Z,11.04
2022-10-19T02:17:59.919Z,11.07
2022-10-19T02:20:28.524Z,11.03
2022-10-19T02:22:56.581Z,11.09
2022-10-19T02:25:25.241Z,11.16
2022-10-19T02:27:53.251Z,11.20
2022-10-19T02:30:22.365Z,11.18
2022-10-19T02:32:51.105Z,11.11
2022-10-19T02:35:18.984Z,11.01
2022-10-19T02:37:46.421Z,10.95
2022-10-19T02:40:14.550Z,10.90
2022-10-19T02:43:04.310Z,10.85
2022-10-19T02:45:36.648Z,10.79
2022-10-19T02:48:13.037Z,10.73
2022-10-19T02:50:49.529Z,10.62
2022-10-19T02:53:16.992Z,10.48
2022-10-19T02:55:44.966Z,10.40
2022-10-19T02:58:12.389Z,10.35
2022-10-19T03:00:39.911Z,10.36
2022-10-19T03:03:07.575Z,10.40
2022-10-19T03:05:34.882Z,10.43
2022-10-19T03:08:02.392Z,10.45
2022-10-19T03:10:29.877Z,10.46
2022-10-19T03:12:58.424Z,10.48
2022-10-19T03:15:29.195Z,10.51
2022-10-19T03:17:57.031Z,10.54
2022-10-19T03:20:24.448Z,10.56
2022-10-19T03:25:24.618Z,10.59
2022-10-19T03:27:53.813Z,10.61
2022-10-19T03:30:21.175Z,10.64
2022-10-19T03:32:48.796Z,10.62
2022-10-19T03:35:16.435Z,10.60
2022-10-19T03:37:43.969Z,10.58
2022-10-19T03:40:11.449Z,10.57
2022-10-19T03:42:38.974Z,10.51
2022-10-19T03:45:06.899Z,10.44
2022-10-19T03:47:34.672Z,10.37
2022-10-19T03:50:02.184Z,10.30
2022-10-19T03:52:29.787Z,10.23
2022-10-19T03:54:57.372Z,10.15
2022-10-19T03:57:24.883Z,10.04
2022-10-19T03:59:52.349Z,9.92
2022-10-19T04:02:20.500Z,9.79
2022-10-19T04:04:47.828Z,9.66
2022-10-19T04:07:15.147Z,9.55
2022-10-19T04:09:42.653Z,9.44
2022-10-19T04:12:10.007Z,9.37
2022-10-19T04:14:52.629Z,9.28
2022-10-19T04:17:24.341Z,9.19
2022-10-19T04:19:51.674Z,9.14
2022-10-19T04:22:19.033Z,9.10
2022-10-19T04:24:46.453Z,9.14
2022-10-19T04:27:13.875Z,9.14
2022-10-19T04:29:41.197Z,9.10
2022-10-19T04:32:08.900Z,9.15
2022-10-19T04:34:39.202Z,9.14
2022-10-19T04:37:07.472Z,9.15
2022-10-19T04:39:39.383Z,9.14
2022-10-19T04:42:06.880Z,9.19
2022-10-19T04:44:34.307Z,9.23
2022-10-19T04:47:01.815Z,9.27
2022-10-19T04:49:29.231Z,9.30
2022-10-19T04:51:56.668Z,9.38
2022-10-19T04:54:24.461Z,9.39
2022-10-19T04:56:53.853Z,9.38
2022-10-19T04:59:21.275Z,9.36
2022-10-19T05:01:49.122Z,9.31
2022-10-19T05:04:16.523Z,9.26
2022-10-19T05:06:43.907Z,9.22
2022-10-19T05:09:11.534Z,9.19
2022-10-19T05:11:39.028Z,9.26
2022-10-19T05:14:06.396Z,9.39
2022-10-19T05:16:33.974Z,9.50
2022-10-19T05:19:01.730Z,9.56
2022-10-19T05:21:29.315Z,9.57
2022-10-19T05:23:58.051Z,9.66
2022-10-19T05:26:27.856Z,9.80
2022-10-19T05:28:58.012Z,9.89
2022-10-19T05:31:31.269Z,9.91
2022-10-19T05:34:00.242Z,9.92
2022-10-19T05:36:34.622Z,9.88
2022-10-19T05:39:06.160Z,9.88
2022-10-19T05:41:34.223Z,9.88
2022-10-19T05:44:03.061Z,9.88
2022-10-19T05:46:31.609Z,9.94
2022-10-19T05:48:59.993Z,10.00
2022-10-19T05:51:28.027Z,10.12
2022-10-19T05:53:56.610Z,10.18
2022-10-19T05:56:29.630Z,10.17
2022-10-19T05:59:02.527Z,10.19
2022-10-19T06:01:30.973Z,10.26
2022-10-19T06:03:59.619Z,10.30
2022-10-19T06:06:28.212Z,10.29
2022-10-19T06:08:59.059Z,10.31
2022-10-19T06:11:33.968Z,10.34
2022-10-19T06:14:04.087Z,10.37
2022-10-19T06:16:32.495Z,10.41
2022-10-19T06:19:00.714Z,10.39
2022-10-19T06:21:30.948Z,10.42
2022-10-19T06:24:01.975Z,10.45
2022-10-19T06:26:31.194Z,10.40
2022-10-19T06:29:00.668Z,10.37
2022-10-19T06:31:32.844Z,10.34
2022-10-19T06:34:00.391Z,10.33
2022-10-19T06:36:30.481Z,10.34
2022-10-19T06:38:59.895Z,10.34
2022-10-19T06:41:28.541Z,10.35
2022-10-19T06:43:56.492Z,10.35
2022-10-19T06:46:25.855Z,10.33
2022-10-19T06:48:58.471Z,10.31
2022-10-19T06:51:28.576Z,10.32
2022-10-19T06:53:57.035Z,10.32
2022-10-19T06:56:26.773Z,10.31
2022-10-19T06:58:55.206Z,10.35
2022-10-19T07:01:23.089Z,10.44
2022-10-19T07:03:54.255Z,10.54
2022-10-19T07:06:22.048Z,10.67
2022-10-19T07:08:49.675Z,10.76
2022-10-19T07:11:19.335Z,10.89
2022-10-19T07:13:46.787Z,10.97
2022-10-19T07:16:19.808Z,11.08
2022-10-19T07:18:51.323Z,11.18
2022-10-19T07:21:19.992Z,11.27
2022-10-19T07:23:47.854Z,11.40
2022-10-19T07:26:18.515Z,11.50
2022-10-19T07:28:47.619Z,11.58
2022-10-19T07:31:18.012Z,11.65
2022-10-19T07:33:45.509Z,11.66
2022-10-19T07:36:13.964Z,11.78
2022-10-19T07:38:41.713Z,11.85
2022-10-19T07:41:13.751Z,11.85
2022-10-19T07:43:43.466Z,11.94
2022-10-19T07:46:16.280Z,12.01
2022-10-19T07:48:44.766Z,12.08
2022-10-19T07:51:13.927Z,12.14
2022-10-19T07:53:42.537Z,12.24
2022-10-19T07:56:12.410Z,12.32
2022-10-19T07:58:40.802Z,12.34
2022-10-19T08:01:14.498Z,12.34
2022-10-19T08:04:31.792Z,12.38
2022-10-19T08:06:30.478Z,12.48
2022-10-19T08:08:58.389Z,12.57
2022-10-19T08:11:29.590Z,12.66
2022-10-19T08:13:59.371Z,12.61
2022-10-19T08:16:29.936Z,12.62
2022-10-19T08:19:02.767Z,12.74
2022-10-19T08:21:31.137Z,12.82
2022-10-19T08:23:58.928Z,12.80
2022-10-19T08:26:30.197Z,12.89
2022-10-19T08:29:06.895Z,12.99
2022-10-19T08:31:34.617Z,12.99
2022-10-19T08:34:02.543Z,12.99
2022-10-19T08:36:35.769Z,13.05
2022-10-19T08:39:05.538Z,13.12
2022-10-19T08:41:59.980Z,13.21
2022-10-19T08:44:58.338Z,13.23
2022-10-19T08:47:59.200Z,13.32
2022-10-19T08:50:34.236Z,13.44
2022-10-19T08:53:06.709Z,13.38
2022-10-19T08:56:02.268Z,13.43
2022-10-19T08:58:51.128Z,13.55
2022-10-19T09:01:37.691Z,13.49
2022-10-19T09:04:30.126Z,13.53
2022-10-19T09:07:18.896Z,13.59
2022-10-19T09:09:51.408Z,13.56
2022-10-19T09:12:24.936Z,13.53
2022-10-19T09:14:55.136Z,13.63
2022-10-19T09:17:22.508Z,13.63
2022-10-19T09:19:49.888Z,13.76
2022-10-19T09:22:29.695Z,13.84
2022-10-19T09:25:13.389Z,13.81
2022-10-19T09:27:44.765Z,13.70
2022-10-19T09:30:20.894Z,13.63
2022-10-19T09:33:00.584Z,13.73
2022-10-19T09:35:38.943Z,13.68
2022-10-19T09:38:08.000Z,13.75
2022-10-19T09:40:35.931Z,13.85
2022-10-19T09:43:19.717Z,13.74
2022-10-19T09:46:19.807Z,13.82
2022-10-19T09:48:51.171Z,13.74
2022-10-19T09:51:20.705Z,13.72
2022-10-19T09:53:53.188Z,13.71
2022-10-19T09:56:28.141Z,13.72
2022-10-19T09:58:58.437Z,13.79
2022-10-19T10:01:41.831Z,13.84
2022-10-19T10:04:18.442Z,13.81
2022-10-19T10:06:48.102Z,13.85
2022-10-19T10:09:24.037Z,13.97
2022-10-19T10:14:36.496Z,14.05
2022-10-19T10:17:07.337Z,14.19
2022-10-19T10:19:36.256Z,14.21
2022-10-19T10:22:04.715Z,14.28
2022-10-19T10:24:34.128Z,14.45
2022-10-19T10:27:05.570Z,14.57
2022-10-19T10:29:39.100Z,14.63
2022-10-19T10:32:11.803Z,14.83
2022-10-19T10:34:51.896Z,14.84
2022-10-19T10:37:41.570Z,14.63
2022-10-19T10:40:29.409Z,14.39
2022-10-19T10:43:02.685Z,14.46
2022-10-19T10:45:38.679Z,14.71
2022-10-19T10:48:36.908Z,14.89
2022-10-19T10:51:18.684Z,14.98
2022-10-19T10:53:47.501Z,15.03
2022-10-19T10:56:27.971Z,14.74
2022-10-19T10:58:58.372Z,14.72
2022-10-19T11:01:32.941Z,14.61
2022-10-19T11:04:07.684Z,14.59
2022-10-19T11:06:44.795Z,14.60
2022-10-19T11:09:36.988Z,14.75
2022-10-19T11:12:09.198Z,14.82
2022-10-19T11:15:01.863Z,14.85
2022-10-19T11:17:33.313Z,14.80
2022-10-19T11:20:01.251Z,14.87
2022-10-19T11:22:39.446Z,15.00
2022-10-19T11:25:45.896Z,15.23
2022-10-19T11:28:28.971Z,15.28
2022-10-19T11:31:18.130Z,15.20
2022-10-19T11:34:00.287Z,15.22
2022-10-19T11:36:42.597Z,15.23
2022-10-19T11:39:22.115Z,15.33
2022-10-19T11:42:08.990Z,15.14
2022-10-19T11:44:51.574Z,14.82
2022-10-19T11:47:56.732Z,14.67
2022-10-19T11:50:54.363Z,14.69
2022-10-19T11:53:31.761Z,14.85
2022-10-19T11:56:16.327Z,15.01
2022-10-19T11:59:05.904Z,14.87
2022-10-19T12:01:59.012Z,14.77
2022-10-19T12:04:29.687Z,14.85
2022-10-19T12:07:24.206Z,14.90
2022-10-19T12:10:09.083Z,14.93
2022-10-19T12:12:42.995Z,14.97
2022-10-19T12:15:26.489Z,15.05
2022-10-19T12:17:57.575Z,15.06
2022-10-19T12:20:25.017Z,14.88
2022-10-19T12:22:52.832Z,14.78
2022-10-19T12:25:21.760Z,14.86
2022-10-19T12:27:51.022Z,14.86
2022-10-19T12:30:22.451Z,14.60
2022-10-19T12:33:02.106Z,14.50
2022-10-19T12:35:40.924Z,14.51
2022-10-19T12:38:29.779Z,14.62
2022-10-19T12:41:05.990Z,14.64
2022-10-19T12:43:56.319Z,14.51
2022-10-19T12:46:44.539Z,14.20
2022-10-19T12:49:36.829Z,14.15
2022-10-19T12:52:05.516Z,14.11
2022-10-19T12:54:35.673Z,14.12
2022-10-19T12:57:04.856Z,14.29
2022-10-19T12:59:34.258Z,14.48
2022-10-19T13:02:06.717Z,14.75
2022-10-19T13:04:37.805Z,14.85
2022-10-19T13:07:10.976Z,14.77
2022-10-19T13:09:44.363Z,14.73
2022-10-19T13:12:22.105Z,14.79
2022-10-19T13:15:00.896Z,14.96
2022-10-19T13:17:37.422Z,15.12
2022-10-19T13:20:13.877Z,15.30
2022-10-19T13:22:49.046Z,15.28
2022-10-19T13:25:16.474Z,14.95
2022-10-19T13:27:46.040Z,14.66
2022-10-19T13:30:38.432Z,14.60
2022-10-19T13:33:33.458Z,14.57
2022-10-19T13:36:01.072Z,14.47
2022-10-19T13:38:39.201Z,14.29
2022-10-19T13:41:09.243Z,14.14
2022-10-19T13:43:51.746Z,14.05
2022-10-19T13:46:31.889Z,13.86
2022-10-19T13:49:07.122Z,13.87
2022-10-19T13:51:59.213Z,13.91
2022-10-19T13:55:02.825Z,13.86
2022-10-19T13:57:54.190Z,13.74
2022-10-19T14:00:24.955Z,13.71
2022-10-19T14:03:10.880Z,13.67
2022-10-19T14:06:00.406Z,13.62
2022-10-19T14:08:55.748Z,13.56
2022-10-19T14:11:36.840Z,13.57
2022-10-19T14:14:16.369Z,13.61
2022-10-19T14:16:51.927Z,13.60
2022-10-19T14:19:29.280Z,13.62
2022-10-19T14:22:16.963Z,13.50
2022-10-19T14:24:44.663Z,13.60
2022-10-19T14:27:18.874Z,13.58
2022-10-19T14:29:49.248Z,13.57
2022-10-19T14:32:18.979Z,13.61
2022-10-19T14:34:48.565Z,13.70
2022-10-19T14:37:27.779Z,13.79
2022-10-19T14:40:36.844Z,13.79
2022-10-19T14:43:20.114Z,13.70
2022-10-19T14:46:06.369Z,13.58
2022-10-19T14:48:45.362Z,13.50
2022-10-19T14:51:28.279Z,13.42
2022-10-19T14:54:05.967Z,13.40
2022-10-19T14:56:41.080Z,13.29
2022-10-19T14:59:21.378Z,13.25
2022-10-19T15:01:52.434Z,13.28
2022-10-19T15:04:23.290Z,13.28
2022-10-19T15:06:51.307Z,13.18
2022-10-19T15:09:37.656Z,13.13
2022-10-19T15:12:17.965Z,13.04
2022-10-19T15:14:47.916Z,13.00
2022-10-19T15:17:23.508Z,12.97
2022-10-19T15:19:52.279Z,12.90
2022-10-19T15:22:32.859Z,12.88
2022-10-19T15:25:07.902Z,12.86
2022-10-19T15:27:36.741Z,12.80
2022-10-19T15:30:19.425Z,12.74
2022-10-19T15:32:50.112Z,12.69
2022-10-19T15:35:27.756Z,12.64
2022-10-19T15:38:31.292Z,12.58
2022-10-19T15:41:04.435Z,12.52
2022-10-19T15:43:34.612Z,12.47
2022-10-19T15:46:09.003Z,12.39
2022-10-19T15:48:44.408Z,12.36
2022-10-19T15:51:24.079Z,12.28
2022-10-19T15:53:59.471Z,12.20
2022-10-19T15:56:29.881Z,12.10
2022-10-19T15:59:00.705Z,12.01
2022-10-19T16:01:31.627Z,11.93
2022-10-19T16:03:59.780Z,11.86
2022-10-19T16:06:30.765Z,11.78
2022-10-19T16:08:59.252Z,11.72
2022-10-19T16:11:28.911Z,11.65
2022-10-19T16:13:56.417Z,11.59
2022-10-19T16:16:27.665Z,11.50
2022-10-19T16:18:55.905Z,11.44
2022-10-19T16:21:31.741Z,11.34
2022-10-19T16:24:00.043Z,11.26
2022-10-19T16:26:28.313Z,11.24
2022-10-19T16:28:56.525Z,11.17
2022-10-19T16:31:24.295Z,11.12
2022-10-19T16:33:51.819Z,11.10
2022-10-19T16:36:20.536Z,11.03
2022-10-19T16:38:48.596Z,11.00
2022-10-19T16:41:16.639Z,10.94
2022-10-19T16:43:44.291Z,10.89
2022-10-19T16:46:11.835Z,10.80
2022-10-19T16:48:39.279Z,10.75
2022-10-19T16:51:07.027Z,10.69
2022-10-19T16:53:35.417Z,10.66
2022-10-19T16:56:07.281Z,10.65
2022-10-19T16:58:37.148Z,10.65
2022-10-19T17:01:12.718Z,10.62
2022-10-19T17:03:40.269Z,10.57
2022-10-19T17:06:08.720Z,10.50
2022-10-19T17:09:02.348Z,10.43
2022-10-19T17:11:27.926Z,10.38
2022-10-19T17:13:58.404Z,10.34
2022-10-19T17:16:28.095Z,10.32
2022-10-19T17:18:57.389Z,10.28
2022-10-19T17:21:28.645Z,10.30
2022-10-19T17:24:00.020Z,10.27
2022-10-19T17:26:29.733Z,10.24
2022-10-19T17:28:58.305Z,10.19
2022-10-19T17:31:26.622Z,10.16
2022-10-19T17:33:54.990Z,10.15
2022-10-19T17:36:28.701Z,10.12
2022-10-19T17:38:59.141Z,10.06
2022-10-19T17:41:27.839Z,10.01
2022-10-19T17:43:55.752Z,9.96
2022-10-19T17:46:29.581Z,9.92
2022-10-19T17:48:58.408Z,9.87
2022-10-19T17:51:30.097Z,9.86
2022-10-19T17:53:59.673Z,9.84
2022-10-19T17:56:28.375Z,9.82
2022-10-19T17:58:57.309Z,9.76
2022-10-19T18:01:25.800Z,9.72
2022-10-19T18:03:54.121Z,9.68
2022-10-19T18:06:33.531Z,9.65
2022-10-19T18:09:03.261Z,9.66
2022-10-19T18:11:40.996Z,9.61
2022-10-19T18:14:09.936Z,9.63
2022-10-19T18:16:46.017Z,9.64
2022-10-19T18:19:15.542Z,9.63
2022-10-19T18:21:44.956Z,9.67
2022-10-19T18:24:19.291Z,9.70
2022-10-19T18:26:48.439Z,9.69
2022-10-19T18:29:19.131Z,9.69
2022-10-19T18:31:51.816Z,9.66
2022-10-19T18:34:25.099Z,9.61
2022-10-19T18:36:53.746Z,9.61
2022-10-19T18:39:21.791Z,9.55
2022-10-19T18:41:56.223Z,9.47
2022-10-19T18:44:26.557Z,9.38
2022-10-19T18:46:56.590Z,9.46
2022-10-19T18:49:24.478Z,9.40
2022-10-19T18:51:55.136Z,9.31
2022-10-19T18:54:26.694Z,9.28
2022-10-19T18:56:55.202Z,9.27
2022-10-19T18:59:22.958Z,9.26
2022-10-19T19:01:50.760Z,9.25
2022-10-19T19:04:18.880Z,9.23
2022-10-19T19:06:46.383Z,9.23
2022-10-19T19:09:14.286Z,9.23
2022-10-19T19:11:43.318Z,9.21
2022-10-19T19:14:14.785Z,9.23
2022-10-19T19:16:44.460Z,9.25
2022-10-19T19:19:15.708Z,9.25
2022-10-19T19:21:44.690Z,9.21
2022-10-19T19:24:15.711Z,9.15
2022-10-19T19:26:48.424Z,9.19
2022-10-19T19:29:17.511Z,9.16
2022-10-19T19:31:45.511Z,9.19
2022-10-19T19:34:13.176Z,9.16
2022-10-19T19:36:48.389Z,9.09
2022-10-19T19:39:19.580Z,9.08
2022-10-19T19:41:48.404Z,9.05
2022-10-19T19:44:16.479Z,9.01
2022-10-19T19:46:43.991Z,8.98
2022-10-19T19:49:12.098Z,8.99
2022-10-19T19:51:39.500Z,8.99
2022-10-19T19:54:07.166Z,8.99
2022-10-19T19:56:35.023Z,9.03
2022-10-19T19:59:03.782Z,9.01
2022-10-19T20:01:32.361Z,8.96
2022-10-19T20:06:37.490Z,8.92
2022-10-19T20:09:07.534Z,8.94
2022-10-19T20:11:37.260Z,8.97
2022-10-19T20:14:07.438Z,8.96
2022-10-19T20:16:35.577Z,8.88
2022-10-19T20:19:12.202Z,8.87
2022-10-19T20:21:40.610Z,8.91
2022-10-19T20:24:08.468Z,8.91
2022-10-19T20:26:36.548Z,8.85
2022-10-19T20:29:05.226Z,8.85
2022-10-19T20:31:39.583Z,8.88
2022-10-19T20:34:13.720Z,8.88
2022-10-19T20:36:41.628Z,8.91
2022-10-19T20:39:09.971Z,8.91
2022-10-19T20:41:37.524Z,8.90
2022-10-19T20:44:05.078Z,8.85
2022-10-19T20:46:32.536Z,8.82
2022-10-19T20:49:01.716Z,8.81
2022-10-19T20:51:32.575Z,8.82
2022-10-19T20:54:02.180Z,8.81
2022-10-19T20:56:35.643Z,8.78
2022-10-19T20:59:18.266Z,8.79
2022-10-19T21:01:48.781Z,8.79
2022-10-19T21:04:16.924Z,8.76
2022-10-19T21:06:46.826Z,8.72
2022-10-19T21:09:17.075Z,8.71
2022-10-19T21:11:46.162Z,8.72
2022-10-19T21:14:16.881Z,8.74
2022-10-19T21:16:44.437Z,8.74
2022-10-19T21:19:15.006Z,8.73
2022-10-19T21:21:45.337Z,8.74
2022-10-19T21:24:20.973Z,8.72
2022-10-19T21:26:48.579Z,8.72
2022-10-19T21:29:17.069Z,8.73
2022-10-19T21:31:48.777Z,8.71
2022-10-19T21:34:22.861Z,8.66
2022-10-19T21:36:51.114Z,8.63
2022-10-19T21:39:19.088Z,8.62
2022-10-19T21:41:47.097Z,8.61
2022-10-19T21:44:16.099Z,8.57
2022-10-19T21:46:44.300Z,8.53
2022-10-19T21:49:12.679Z,8.52
2022-10-19T21:51:45.108Z,8.46
2022-10-19T21:54:18.068Z,8.43
2022-10-19T21:56:46.942Z,8.38
2022-10-19T21:59:15.083Z,8.38
2022-10-19T22:01:43.167Z,8.37
2022-10-19T22:04:16.404Z,8.38
2022-10-19T22:06:44.479Z,8.36
2022-10-19T22:09:15.387Z,8.36
2022-10-19T22:11:43.335Z,8.35
2022-10-19T22:14:13.289Z,8.38
2022-10-19T22:16:41.902Z,8.39
2022-10-19T22:19:10.217Z,8.44
2022-10-19T22:24:13.986Z,8.38
2022-10-19T22:26:44.742Z,8.41
2022-10-19T22:29:12.531Z,8.41
2022-10-19T22:31:40.157Z,8.39
2022-10-19T22:34:10.933Z,8.37
2022-10-19T22:36:38.496Z,8.35
2022-10-19T22:39:06.420Z,8.36
2022-10-19T22:42:30.309Z,8.38
2022-10-19T22:45:16.734Z,8.36
2022-10-19T22:47:44.256Z,8.32
2022-10-19T22:50:12.350Z,8.32
2022-10-19T22:52:40.004Z,8.31
2022-10-19T22:55:07.726Z,8.26
2022-10-19T22:57:35.193Z,8.26
2022-10-19T23:00:04.212Z,8.27
2022-10-19T23:02:31.953Z,8.25
2022-10-19T23:04:59.367Z,8.20
2022-10-19T23:07:27.024Z,8.18
2022-10-19T23:09:54.598Z,8.18
2022-10-19T23:12:22.279Z,8.16
2022-10-19T23:14:49.878Z,8.12
2022-10-19T23:17:17.290Z,8.10
2022-10-19T23:19:44.768Z,8.05
2022-10-19T23:22:12.285Z,8.02
2022-10-19T23:24:39.739Z,8.00
2022-10-19T23:27:07.495Z,7.99
2022-10-19T23:29:35.295Z,7.98
2022-10-19T23:32:02.729Z,7.98
2022-10-19T23:34:30.318Z,7.94
2022-10-19T23:36:58.176Z,7.89
2022-10-19T23:39:25.722Z,7.85
2022-10-19T23:41:53.153Z,7.84
2022-10-19T23:44:20.723Z,7.75
2022-10-19T23:46:48.187Z,7.74
2022-10-19T23:49:15.595Z,7.73
2022-10-19T23:51:43.157Z,7.70
2022-10-19T23:54:10.545Z,7.69
2022-10-19T23:56:37.998Z,7.68
2022-10-19T23:59:07.845Z,7.65
